Tor Viking — SLJT — position and weather

sailwx.info

Track history (hours):
 
Tides and Currents Weather Stations Pressure Air Temp Water Temp Dewpoint Dewpoint Depression Visibility Wind Speed Wind Dir Waves Ship Positions

Tor Viking

Last reported at 2016-Dec-21 07:31 UTC. Time now 2017-Jan-18 18:16 UTC.
Position N 56°42' W 002°22'.
Warning: this ship's position is 28 days out of date.

Length 84 m; draft 6.6 m.

Type: Towing. MMSI: 266004000.

Date/timePositionNaut miles runAvg speedWind from/ knotsBaromVisibWave heightAir tempDewpointWater temp
2016-Dec-21 07:31N 56°42' W 002°22'3 0.9
2016-Dec-21 04:08N 56°40' W 002°25'2 3.1
2016-Dec-21 03:33N 56°41' W 002°23'3 2.9
2016-Dec-21 02:26N 56°44' W 002°20'14 3.3
2016-Dec-20 22:14N 56°55' W 002°05'2 3.5
2016-Dec-20 21:33N 56°57' W 002°03'4 3.8
2016-Dec-20 20:33N 57°00' W 001°58'4 4.2
2016-Dec-20 19:33N 57°03' W 001°53'4 4.2
2016-Dec-20 18:32N 57°07' W 001°49'4 3.7
2016-Dec-20 17:33N 57°09' W 001°44'  
2016-Dec-14 03:11N 56°44' W 001°54'710.3
2016-Dec-14 02:33N 56°43' W 002°06'  
Track history (hours):
 
Tides and Currents Weather Stations Pressure Air Temp Water Temp Dewpoint Dewpoint Depression Visibility Wind Speed Wind Dir Waves Ship Positions

Tor Viking

Last reported at 2016-Dec-21 07:31 UTC. Time now 2017-Jan-18 18:16 UTC.
Position N 56°42' W 002°22'.
Warning: this ship's position is 28 days out of date.

Length 84 m; draft 6.6 m.

Type: Towing. MMSI: 266004000.

Date/timePositionNaut miles runAvg speedWind from/ knotsBaromVisibWave heightAir tempDewpointWater temp
2016-Dec-21 07:31N 56°42' W 002°22'3 0.9
2016-Dec-21 04:08N 56°40' W 002°25'2 3.1
2016-Dec-21 03:33N 56°41' W 002°23'3 2.9
2016-Dec-21 02:26N 56°44' W 002°20'14 3.3
2016-Dec-20 22:14N 56°55' W 002°05'2 3.5
2016-Dec-20 21:33N 56°57' W 002°03'4 3.8
2016-Dec-20 20:33N 57°00' W 001°58'4 4.2
2016-Dec-20 19:33N 57°03' W 001°53'4 4.2
2016-Dec-20 18:32N 57°07' W 001°49'4 3.7
2016-Dec-20 17:33N 57°09' W 001°44'  
2016-Dec-14 03:11N 56°44' W 001°54'710.3
2016-Dec-14 02:33N 56°43' W 002°06'  

Dump ship's entire track history